sensor_id;sensor_type;location;lat;lon;timestamp;temperature;humidity
18412;DHT22;27097;51.738;19.472;2022-07-23T00:02:25;27.90;57.10
18412;DHT22;27097;51.738;19.472;2022-07-23T00:04:54;27.90;57.00
18412;DHT22;27097;51.738;19.472;2022-07-23T00:07:21;27.90;57.10
18412;DHT22;27097;51.738;19.472;2022-07-23T00:09:48;27.90;57.20
18412;DHT22;27097;51.738;19.472;2022-07-23T00:12:15;27.90;57.00
18412;DHT22;27097;51.738;19.472;2022-07-23T00:14:42;27.90;57.00
18412;DHT22;27097;51.738;19.472;2022-07-23T00:17:09;27.90;57.50
18412;DHT22;27097;51.738;19.472;2022-07-23T00:19:36;27.90;57.30
18412;DHT22;27097;51.738;19.472;2022-07-23T00:22:05;27.90;57.20
18412;DHT22;27097;51.738;19.472;2022-07-23T00:24:32;27.90;57.40
18412;DHT22;27097;51.738;19.472;2022-07-23T00:26:59;27.90;57.50
18412;DHT22;27097;51.738;19.472;2022-07-23T00:29:26;27.90;57.30
18412;DHT22;27097;51.738;19.472;2022-07-23T00:31:53;27.90;57.40
18412;DHT22;27097;51.738;19.472;2022-07-23T00:34:20;27.90;57.20
18412;DHT22;27097;51.738;19.472;2022-07-23T00:36:47;27.90;57.50
18412;DHT22;27097;51.738;19.472;2022-07-23T00:39:16;27.90;57.60
18412;DHT22;27097;51.738;19.472;2022-07-23T00:41:43;27.90;57.70
18412;DHT22;27097;51.738;19.472;2022-07-23T00:44:18;27.90;57.60
18412;DHT22;27097;51.738;19.472;2022-07-23T00:46:46;27.90;57.90
18412;DHT22;27097;51.738;19.472;2022-07-23T00:49:13;27.90;58.00
18412;DHT22;27097;51.738;19.472;2022-07-23T00:51:40;27.90;58.00
18412;DHT22;27097;51.738;19.472;2022-07-23T00:54:08;27.90;57.90
18412;DHT22;27097;51.738;19.472;2022-07-23T00:56:37;27.90;57.90
18412;DHT22;27097;51.738;19.472;2022-07-23T00:59:05;27.90;57.90
18412;DHT22;27097;51.738;19.472;2022-07-23T01:01:33;27.90;58.00
18412;DHT22;27097;51.738;19.472;2022-07-23T01:04:00;27.90;58.00
18412;DHT22;27097;51.738;19.472;2022-07-23T01:06:28;27.90;58.00
18412;DHT22;27097;51.738;19.472;2022-07-23T01:08:55;27.90;58.40
18412;DHT22;27097;51.738;19.472;2022-07-23T01:11:23;27.90;58.70
18412;DHT22;27097;51.738;19.472;2022-07-23T01:13:52;27.90;58.90
18412;DHT22;27097;51.738;19.472;2022-07-23T01:16:19;27.90;59.10
18412;DHT22;27097;51.738;19.472;2022-07-23T01:18:46;27.90;59.20
18412;DHT22;27097;51.738;19.472;2022-07-23T01:21:14;27.90;58.90
18412;DHT22;27097;51.738;19.472;2022-07-23T01:23:43;27.90;59.20
18412;DHT22;27097;51.738;19.472;2022-07-23T01:26:10;27.90;59.00
18412;DHT22;27097;51.738;19.472;2022-07-23T01:28:37;27.90;58.90
18412;DHT22;27097;51.738;19.472;2022-07-23T01:31:04;27.90;59.10
18412;DHT22;27097;51.738;19.472;2022-07-23T01:33:31;27.80;59.20
18412;DHT22;27097;51.738;19.472;2022-07-23T01:35:58;27.80;59.00
18412;DHT22;27097;51.738;19.472;2022-07-23T01:38:25;27.80;59.20
18412;DHT22;27097;51.738;19.472;2022-07-23T01:40:54;27.80;59.30
18412;DHT22;27097;51.738;19.472;2022-07-23T01:43:21;27.80;59.00
18412;DHT22;27097;51.738;19.472;2022-07-23T01:45:48;27.80;59.10
18412;DHT22;27097;51.738;19.472;2022-07-23T01:48:15;27.80;59.00
18412;DHT22;27097;51.738;19.472;2022-07-23T01:50:42;27.80;59.00
18412;DHT22;27097;51.738;19.472;2022-07-23T01:53:09;27.80;59.20
18412;DHT22;27097;51.738;19.472;2022-07-23T01:55:36;27.80;59.20
18412;DHT22;27097;51.738;19.472;2022-07-23T01:58:04;27.80;59.20
18412;DHT22;27097;51.738;19.472;2022-07-23T02:00:32;27.80;59.10
18412;DHT22;27097;51.738;19.472;2022-07-23T02:02:59;27.80;59.30
18412;DHT22;27097;51.738;19.472;2022-07-23T02:05:26;27.80;59.20
18412;DHT22;27097;51.738;19.472;2022-07-23T02:07:54;27.80;59.20
18412;DHT22;27097;51.738;19.472;2022-07-23T02:10:21;27.80;59.20
18412;DHT22;27097;51.738;19.472;2022-07-23T02:12:48;27.80;59.20
18412;DHT22;27097;51.738;19.472;2022-07-23T02:15:17;27.80;59.20
18412;DHT22;27097;51.738;19.472;2022-07-23T02:17:45;27.80;59.20
18412;DHT22;27097;51.738;19.472;2022-07-23T02:20:12;27.80;59.20
18412;DHT22;27097;51.738;19.472;2022-07-23T02:22:40;27.80;59.30
18412;DHT22;27097;51.738;19.472;2022-07-23T02:25:08;27.80;59.40
18412;DHT22;27097;51.738;19.472;2022-07-23T02:27:35;27.80;59.30
18412;DHT22;27097;51.738;19.472;2022-07-23T02:30:04;27.80;59.50
18412;DHT22;27097;51.738;19.472;2022-07-23T02:32:32;27.80;59.30
18412;DHT22;27097;51.738;19.472;2022-07-23T02:34:59;27.80;59.40
18412;DHT22;27097;51.738;19.472;2022-07-23T02:37:27;27.80;59.60
18412;DHT22;27097;51.738;19.472;2022-07-23T02:39:54;27.80;59.50
18412;DHT22;27097;51.738;19.472;2022-07-23T02:42:21;27.80;59.40
18412;DHT22;27097;51.738;19.472;2022-07-23T02:44:49;27.80;59.30
18412;DHT22;27097;51.738;19.472;2022-07-23T02:47:16;27.80;59.60
18412;DHT22;27097;51.738;19.472;2022-07-23T02:49:45;27.80;59.50
18412;DHT22;27097;51.738;19.472;2022-07-23T02:52:12;27.80;59.50
18412;DHT22;27097;51.738;19.472;2022-07-23T02:54:39;27.80;59.40
18412;DHT22;27097;51.738;19.472;2022-07-23T02:57:06;27.80;59.30
18412;DHT22;27097;51.738;19.472;2022-07-23T02:59:33;27.80;59.30
18412;DHT22;27097;51.738;19.472;2022-07-23T03:02:00;27.80;59.30
18412;DHT22;27097;51.738;19.472;2022-07-23T03:04:27;27.80;59.30
18412;DHT22;27097;51.738;19.472;2022-07-23T03:06:55;27.80;59.30
18412;DHT22;27097;51.738;19.472;2022-07-23T03:09:23;27.80;59.40
18412;DHT22;27097;51.738;19.472;2022-07-23T03:12:00;27.80;59.40
18412;DHT22;27097;51.738;19.472;2022-07-23T03:14:27;27.80;59.30
18412;DHT22;27097;51.738;19.472;2022-07-23T03:16:55;27.80;59.10
18412;DHT22;27097;51.738;19.472;2022-07-23T03:19:22;27.80;59.30
18412;DHT22;27097;51.738;19.472;2022-07-23T03:21:49;27.80;59.20
18412;DHT22;27097;51.738;19.472;2022-07-23T03:24:18;27.80;59.20
18412;DHT22;27097;51.738;19.472;2022-07-23T03:26:45;27.80;59.10
18412;DHT22;27097;51.738;19.472;2022-07-23T03:29:12;27.70;59.00
18412;DHT22;27097;51.738;19.472;2022-07-23T03:31:39;27.70;58.90
18412;DHT22;27097;51.738;19.472;2022-07-23T03:34:06;27.70;59.10
18412;DHT22;27097;51.738;19.472;2022-07-23T03:36:33;27.70;59.00
18412;DHT22;27097;51.738;19.472;2022-07-23T03:39:00;27.70;58.90
18412;DHT22;27097;51.738;19.472;2022-07-23T03:41:28;27.70;58.80
18412;DHT22;27097;51.738;19.472;2022-07-23T03:43:55;27.70;59.00
18412;DHT22;27097;51.738;19.472;2022-07-23T03:46:22;27.70;59.00
18412;DHT22;27097;51.738;19.472;2022-07-23T03:48:49;27.70;58.80
18412;DHT22;27097;51.738;19.472;2022-07-23T03:51:16;27.70;59.30
18412;DHT22;27097;51.738;19.472;2022-07-23T03:53:43;27.70;59.00
18412;DHT22;27097;51.738;19.472;2022-07-23T03:56:10;27.70;59.30
18412;DHT22;27097;51.738;19.472;2022-07-23T03:58:39;27.70;59.10
18412;DHT22;27097;51.738;19.472;2022-07-23T04:01:06;27.70;58.90
18412;DHT22;27097;51.738;19.472;2022-07-23T04:03:33;27.70;59.30
18412;DHT22;27097;51.738;19.472;2022-07-23T04:06:00;27.70;59.30
18412;DHT22;27097;51.738;19.472;2022-07-23T04:08:27;27.70;59.00
18412;DHT22;27097;51.738;19.472;2022-07-23T04:10:55;27.70;59.10
18412;DHT22;27097;51.738;19.472;2022-07-23T04:13:22;27.80;59.30
18412;DHT22;27097;51.738;19.472;2022-07-23T04:15:51;27.70;59.20
18412;DHT22;27097;51.738;19.472;2022-07-23T04:18:18;27.70;59.00
18412;DHT22;27097;51.738;19.472;2022-07-23T04:20:51;27.80;59.20
18412;DHT22;27097;51.738;19.472;2022-07-23T04:23:18;27.80;59.20
18412;DHT22;27097;51.738;19.472;2022-07-23T04:25:45;27.80;59.40
18412;DHT22;27097;51.738;19.472;2022-07-23T04:28:12;27.80;59.10
18412;DHT22;27097;51.738;19.472;2022-07-23T04:30:39;27.80;58.80
18412;DHT22;27097;51.738;19.472;2022-07-23T04:33:07;27.80;58.90
18412;DHT22;27097;51.738;19.472;2022-07-23T04:35:35;27.70;59.20
18412;DHT22;27097;51.738;19.472;2022-07-23T04:38:03;27.80;58.40
18412;DHT22;27097;51.738;19.472;2022-07-23T04:40:30;27.80;58.40
18412;DHT22;27097;51.738;19.472;2022-07-23T04:42:57;27.80;59.20
18412;DHT22;27097;51.738;19.472;2022-07-23T04:45:24;27.80;58.80
18412;DHT22;27097;51.738;19.472;2022-07-23T04:47:51;27.80;58.60
18412;DHT22;27097;51.738;19.472;2022-07-23T04:50:20;27.80;58.80
18412;DHT22;27097;51.738;19.472;2022-07-23T04:52:48;27.80;59.40
18412;DHT22;27097;51.738;19.472;2022-07-23T04:55:15;27.80;58.60
18412;DHT22;27097;51.738;19.472;2022-07-23T04:57:42;27.80;58.80
18412;DHT22;27097;51.738;19.472;2022-07-23T05:00:11;27.80;59.00
18412;DHT22;27097;51.738;19.472;2022-07-23T05:02:38;27.80;58.40
18412;DHT22;27097;51.738;19.472;2022-07-23T05:05:06;27.80;58.80
18412;DHT22;27097;51.738;19.472;2022-07-23T05:07:34;27.90;59.10
18412;DHT22;27097;51.738;19.472;2022-07-23T05:10:01;27.80;59.30
18412;DHT22;27097;51.738;19.472;2022-07-23T05:12:28;27.90;59.40
18412;DHT22;27097;51.738;19.472;2022-07-23T05:14:56;27.90;59.10
18412;DHT22;27097;51.738;19.472;2022-07-23T05:17:23;27.90;59.80
18412;DHT22;27097;51.738;19.472;2022-07-23T05:19:51;27.90;59.20
18412;DHT22;27097;51.738;19.472;2022-07-23T05:22:18;27.90;59.30
18412;DHT22;27097;51.738;19.472;2022-07-23T05:24:47;27.90;58.80
18412;DHT22;27097;51.738;19.472;2022-07-23T05:27:14;27.90;58.70
18412;DHT22;27097;51.738;19.472;2022-07-23T05:29:41;27.90;58.80
18412;DHT22;27097;51.738;19.472;2022-07-23T05:32:08;28.00;59.50
18412;DHT22;27097;51.738;19.472;2022-07-23T05:34:35;27.90;60.10
18412;DHT22;27097;51.738;19.472;2022-07-23T05:37:02;28.00;59.20
18412;DHT22;27097;51.738;19.472;2022-07-23T05:39:29;28.00;59.00
18412;DHT22;27097;51.738;19.472;2022-07-23T05:41:58;28.00;59.60
18412;DHT22;27097;51.738;19.472;2022-07-23T05:44:25;28.00;59.50
18412;DHT22;27097;51.738;19.472;2022-07-23T05:46:53;28.00;59.60
18412;DHT22;27097;51.738;19.472;2022-07-23T05:49:20;28.00;60.00
18412;DHT22;27097;51.738;19.472;2022-07-23T05:51:47;28.00;59.40
18412;DHT22;27097;51.738;19.472;2022-07-23T05:54:14;28.00;59.60
18412;DHT22;27097;51.738;19.472;2022-07-23T05:56:41;28.00;59.90
18412;DHT22;27097;51.738;19.472;2022-07-23T05:59:09;28.00;59.50
18412;DHT22;27097;51.738;19.472;2022-07-23T06:01:37;28.00;58.60
18412;DHT22;27097;51.738;19.472;2022-07-23T06:04:04;28.00;59.00
18412;DHT22;27097;51.738;19.472;2022-07-23T06:06:31;28.00;58.70
18412;DHT22;27097;51.738;19.472;2022-07-23T06:08:58;28.00;58.30
18412;DHT22;27097;51.738;19.472;2022-07-23T06:11:25;28.10;58.30
18412;DHT22;27097;51.738;19.472;2022-07-23T06:13:52;28.10;58.90
18412;DHT22;27097;51.738;19.472;2022-07-23T06:16:21;28.10;59.00
18412;DHT22;27097;51.738;19.472;2022-07-23T06:18:48;28.10;58.60
18412;DHT22;27097;51.738;19.472;2022-07-23T06:21:15;28.10;58.80
18412;DHT22;27097;51.738;19.472;2022-07-23T06:23:42;28.10;59.20
18412;DHT22;27097;51.738;19.472;2022-07-23T06:26:09;28.10;58.80
18412;DHT22;27097;51.738;19.472;2022-07-23T06:28:36;28.20;58.90
18412;DHT22;27097;51.738;19.472;2022-07-23T06:31:03;28.20;59.30
18412;DHT22;27097;51.738;19.472;2022-07-23T06:33:31;28.20;59.60
18412;DHT22;27097;51.738;19.472;2022-07-23T06:35:59;28.20;59.60
18412;DHT22;27097;51.738;19.472;2022-07-23T06:38:26;28.20;61.10
18412;DHT22;27097;51.738;19.472;2022-07-23T06:40:53;28.20;61.20
18412;DHT22;27097;51.738;19.472;2022-07-23T06:43:23;28.20;62.30
18412;DHT22;27097;51.738;19.472;2022-07-23T06:45:50;28.20;62.40
18412;DHT22;27097;51.738;19.472;2022-07-23T06:48:17;28.20;62.10
18412;DHT22;27097;51.738;19.472;2022-07-23T06:50:45;28.20;63.50
18412;DHT22;27097;51.738;19.472;2022-07-23T06:53:12;28.20;63.70
18412;DHT22;27097;51.738;19.472;2022-07-23T06:55:40;28.20;64.10
18412;DHT22;27097;51.738;19.472;2022-07-23T06:58:07;28.20;63.80
18412;DHT22;27097;51.738;19.472;2022-07-23T07:00:35;28.20;62.00
18412;DHT22;27097;51.738;19.472;2022-07-23T07:03:03;28.20;60.80
18412;DHT22;27097;51.738;19.472;2022-07-23T07:05:30;28.30;61.90
18412;DHT22;27097;51.738;19.472;2022-07-23T07:07:58;28.30;62.70
18412;DHT22;27097;51.738;19.472;2022-07-23T07:10:25;28.30;61.90
18412;DHT22;27097;51.738;19.472;2022-07-23T07:12:52;28.30;61.50
18412;DHT22;27097;51.738;19.472;2022-07-23T07:15:19;28.30;61.30
18412;DHT22;27097;51.738;19.472;2022-07-23T07:17:46;28.30;61.80
18412;DHT22;27097;51.738;19.472;2022-07-23T07:20:14;28.30;62.20
18412;DHT22;27097;51.738;19.472;2022-07-23T07:22:41;28.30;61.40
18412;DHT22;27097;51.738;19.472;2022-07-23T07:25:09;28.30;61.50
18412;DHT22;27097;51.738;19.472;2022-07-23T07:27:37;28.30;61.60
18412;DHT22;27097;51.738;19.472;2022-07-23T07:30:05;28.30;61.10
18412;DHT22;27097;51.738;19.472;2022-07-23T07:32:32;28.30;61.60
18412;DHT22;27097;51.738;19.472;2022-07-23T07:34:59;28.30;61.20
18412;DHT22;27097;51.738;19.472;2022-07-23T07:37:26;28.30;61.20
18412;DHT22;27097;51.738;19.472;2022-07-23T07:39:53;28.40;61.20
18412;DHT22;27097;51.738;19.472;2022-07-23T07:42:22;28.40;60.00
18412;DHT22;27097;51.738;19.472;2022-07-23T07:44:49;28.40;60.30
18412;DHT22;27097;51.738;19.472;2022-07-23T07:47:16;28.40;60.40
18412;DHT22;27097;51.738;19.472;2022-07-23T07:49:43;28.40;61.30
18412;DHT22;27097;51.738;19.472;2022-07-23T07:52:11;28.40;60.80
18412;DHT22;27097;51.738;19.472;2022-07-23T07:54:38;28.50;60.90
18412;DHT22;27097;51.738;19.472;2022-07-23T07:57:05;28.50;60.90
18412;DHT22;27097;51.738;19.472;2022-07-23T07:59:33;28.50;60.20
18412;DHT22;27097;51.738;19.472;2022-07-23T08:02:01;28.50;60.40
18412;DHT22;27097;51.738;19.472;2022-07-23T08:04:28;28.50;61.90
18412;DHT22;27097;51.738;19.472;2022-07-23T08:06:55;28.50;61.40
18412;DHT22;27097;51.738;19.472;2022-07-23T08:09:22;28.50;62.10
18412;DHT22;27097;51.738;19.472;2022-07-23T08:11:49;28.50;62.30
18412;DHT22;27097;51.738;19.472;2022-07-23T08:14:17;28.50;62.20
18412;DHT22;27097;51.738;19.472;2022-07-23T08:16:45;28.50;61.90
18412;DHT22;27097;51.738;19.472;2022-07-23T08:19:13;28.50;63.00
18412;DHT22;27097;51.738;19.472;2022-07-23T08:21:40;28.50;62.90
18412;DHT22;27097;51.738;19.472;2022-07-23T08:24:07;28.50;62.90
18412;DHT22;27097;51.738;19.472;2022-07-23T08:26:34;28.50;62.40
18412;DHT22;27097;51.738;19.472;2022-07-23T08:29:01;28.50;62.30
18412;DHT22;27097;51.738;19.472;2022-07-23T08:31:28;28.60;62.20
18412;DHT22;27097;51.738;19.472;2022-07-23T08:33:56;28.60;61.80
18412;DHT22;27097;51.738;19.472;2022-07-23T08:36:23;28.60;61.00
18412;DHT22;27097;51.738;19.472;2022-07-23T08:38:53;28.60;61.50
18412;DHT22;27097;51.738;19.472;2022-07-23T08:41:20;28.60;61.30
18412;DHT22;27097;51.738;19.472;2022-07-23T08:43:47;28.60;59.90
18412;DHT22;27097;51.738;19.472;2022-07-23T08:46:17;28.60;59.90
18412;DHT22;27097;51.738;19.472;2022-07-23T08:48:48;28.60;60.70
18412;DHT22;27097;51.738;19.472;2022-07-23T08:51:17;28.60;60.80
18412;DHT22;27097;51.738;19.472;2022-07-23T08:53:44;28.60;60.70
18412;DHT22;27097;51.738;19.472;2022-07-23T08:56:12;28.60;60.70
18412;DHT22;27097;51.738;19.472;2022-07-23T08:58:39;28.60;61.70
18412;DHT22;27097;51.738;19.472;2022-07-23T09:01:06;28.60;61.00
18412;DHT22;27097;51.738;19.472;2022-07-23T09:03:34;28.60;61.60
18412;DHT22;27097;51.738;19.472;2022-07-23T09:06:02;28.60;61.50
18412;DHT22;27097;51.738;19.472;2022-07-23T09:08:37;28.70;60.70
18412;DHT22;27097;51.738;19.472;2022-07-23T09:11:05;28.70;60.40
18412;DHT22;27097;51.738;19.472;2022-07-23T09:13:36;28.70;60.20
18412;DHT22;27097;51.738;19.472;2022-07-23T09:16:07;28.70;60.10
18412;DHT22;27097;51.738;19.472;2022-07-23T09:18:40;28.70;59.80
18412;DHT22;27097;51.738;19.472;2022-07-23T09:21:11;28.70;60.90
18412;DHT22;27097;51.738;19.472;2022-07-23T09:23:42;28.70;61.10
18412;DHT22;27097;51.738;19.472;2022-07-23T09:26:27;28.70;60.50
18412;DHT22;27097;51.738;19.472;2022-07-23T09:28:59;28.70;60.10
18412;DHT22;27097;51.738;19.472;2022-07-23T09:31:43;28.80;60.40
18412;DHT22;27097;51.738;19.472;2022-07-23T09:34:13;28.70;60.00
18412;DHT22;27097;51.738;19.472;2022-07-23T09:36:41;28.80;60.60
18412;DHT22;27097;51.738;19.472;2022-07-23T09:39:10;28.80;59.90
18412;DHT22;27097;51.738;19.472;2022-07-23T09:41:39;28.80;59.80
18412;DHT22;27097;51.738;19.472;2022-07-23T09:44:12;28.80;59.90
18412;DHT22;27097;51.738;19.472;2022-07-23T09:46:40;28.80;60.00
18412;DHT22;27097;51.738;19.472;2022-07-23T09:49:18;28.80;60.10
18412;DHT22;27097;51.738;19.472;2022-07-23T09:51:54;28.80;60.00
18412;DHT22;27097;51.738;19.472;2022-07-23T09:54:32;28.90;60.10
18412;DHT22;27097;51.738;19.472;2022-07-23T09:57:02;28.90;60.50
18412;DHT22;27097;51.738;19.472;2022-07-23T09:59:32;28.90;60.50
18412;DHT22;27097;51.738;19.472;2022-07-23T10:02:00;28.90;60.50
18412;DHT22;27097;51.738;19.472;2022-07-23T10:04:29;28.90;60.20
18412;DHT22;27097;51.738;19.472;2022-07-23T10:06:58;28.90;60.10
18412;DHT22;27097;51.738;19.472;2022-07-23T10:09:28;28.90;60.20
18412;DHT22;27097;51.738;19.472;2022-07-23T10:11:58;28.90;59.90
18412;DHT22;27097;51.738;19.472;2022-07-23T10:14:30;28.90;59.90
18412;DHT22;27097;51.738;19.472;2022-07-23T10:16:59;29.00;59.50
18412;DHT22;27097;51.738;19.472;2022-07-23T10:19:27;29.00;59.70
18412;DHT22;27097;51.738;19.472;2022-07-23T10:21:57;29.00;60.00
18412;DHT22;27097;51.738;19.472;2022-07-23T10:24:36;29.00;59.60
18412;DHT22;27097;51.738;19.472;2022-07-23T10:27:31;29.00;59.80
18412;DHT22;27097;51.738;19.472;2022-07-23T10:30:07;29.00;60.60
18412;DHT22;27097;51.738;19.472;2022-07-23T10:32:43;29.00;61.00
18412;DHT22;27097;51.738;19.472;2022-07-23T10:35:25;29.00;61.40
18412;DHT22;27097;51.738;19.472;2022-07-23T10:38:00;29.00;61.80
18412;DHT22;27097;51.738;19.472;2022-07-23T10:40:30;29.00;62.30
18412;DHT22;27097;51.738;19.472;2022-07-23T10:43:00;29.00;62.30
18412;DHT22;27097;51.738;19.472;2022-07-23T10:45:30;29.00;61.90
18412;DHT22;27097;51.738;19.472;2022-07-23T10:48:16;29.00;62.10
18412;DHT22;27097;51.738;19.472;2022-07-23T10:50:45;28.90;61.80
18412;DHT22;27097;51.738;19.472;2022-07-23T10:53:53;28.90;61.60
18412;DHT22;27097;51.738;19.472;2022-07-23T11:02:41;28.90;62.00
18412;DHT22;27097;51.738;19.472;2022-07-23T11:05:11;28.90;62.30
18412;DHT22;27097;51.738;19.472;2022-07-23T11:08:13;28.90;62.90
18412;DHT22;27097;51.738;19.472;2022-07-23T11:10:44;28.90;62.30
18412;DHT22;27097;51.738;19.472;2022-07-23T11:16:25;28.90;61.60
18412;DHT22;27097;51.738;19.472;2022-07-23T11:19:09;28.90;61.60
18412;DHT22;27097;51.738;19.472;2022-07-23T11:21:46;28.80;61.30
18412;DHT22;27097;51.738;19.472;2022-07-23T11:24:16;28.80;62.20
18412;DHT22;27097;51.738;19.472;2022-07-23T11:26:46;28.90;61.60
18412;DHT22;27097;51.738;19.472;2022-07-23T11:29:42;28.80;61.70
18412;DHT22;27097;51.738;19.472;2022-07-23T11:32:24;28.80;61.20
18412;DHT22;27097;51.738;19.472;2022-07-23T11:34:52;28.80;62.40
18412;DHT22;27097;51.738;19.472;2022-07-23T11:37:43;28.90;61.60
18412;DHT22;27097;51.738;19.472;2022-07-23T11:40:14;28.90;61.40
18412;DHT22;27097;51.738;19.472;2022-07-23T11:42:52;28.90;61.20
18412;DHT22;27097;51.738;19.472;2022-07-23T11:45:20;28.90;60.70
18412;DHT22;27097;51.738;19.472;2022-07-23T11:47:47;28.90;60.30
18412;DHT22;27097;51.738;19.472;2022-07-23T11:50:15;28.90;60.00
18412;DHT22;27097;51.738;19.472;2022-07-23T11:52:43;28.90;60.00
18412;DHT22;27097;51.738;19.472;2022-07-23T11:55:10;28.90;59.80
18412;DHT22;27097;51.738;19.472;2022-07-23T11:57:40;28.90;59.60
18412;DHT22;27097;51.738;19.472;2022-07-23T12:00:09;28.90;59.80
18412;DHT22;27097;51.738;19.472;2022-07-23T12:02:37;28.90;59.50
18412;DHT22;27097;51.738;19.472;2022-07-23T12:05:05;28.90;59.40
18412;DHT22;27097;51.738;19.472;2022-07-23T12:07:38;28.90;58.10
18412;DHT22;27097;51.738;19.472;2022-07-23T12:10:15;28.90;54.60
18412;DHT22;27097;51.738;19.472;2022-07-23T12:12:44;28.90;55.30
18412;DHT22;27097;51.738;19.472;2022-07-23T12:15:13;28.90;54.30
18412;DHT22;27097;51.738;19.472;2022-07-23T12:17:44;28.90;54.50
18412;DHT22;27097;51.738;19.472;2022-07-23T12:20:14;28.90;53.70
18412;DHT22;27097;51.738;19.472;2022-07-23T12:22:44;28.90;53.30
18412;DHT22;27097;51.738;19.472;2022-07-23T12:25:13;28.90;53.10
18412;DHT22;27097;51.738;19.472;2022-07-23T12:27:41;28.90;54.30
18412;DHT22;27097;51.738;19.472;2022-07-23T12:30:16;28.90;54.40
18412;DHT22;27097;51.738;19.472;2022-07-23T12:32:44;28.90;54.80
18412;DHT22;27097;51.738;19.472;2022-07-23T12:35:12;28.90;53.50
18412;DHT22;27097;51.738;19.472;2022-07-23T12:37:41;28.80;53.20
18412;DHT22;27097;51.738;19.472;2022-07-23T12:40:27;28.80;54.50
18412;DHT22;27097;51.738;19.472;2022-07-23T12:42:56;28.80;54.50
18412;DHT22;27097;51.738;19.472;2022-07-23T12:45:24;28.80;54.60
18412;DHT22;27097;51.738;19.472;2022-07-23T12:47:57;28.80;54.90
18412;DHT22;27097;51.738;19.472;2022-07-23T12:50:36;28.80;55.90
18412;DHT22;27097;51.738;19.472;2022-07-23T12:53:05;28.70;56.20
18412;DHT22;27097;51.738;19.472;2022-07-23T12:55:35;28.70;56.50
18412;DHT22;27097;51.738;19.472;2022-07-23T12:58:07;28.70;56.80
18412;DHT22;27097;51.738;19.472;2022-07-23T13:00:56;28.70;56.10
18412;DHT22;27097;51.738;19.472;2022-07-23T13:03:25;28.80;55.60
18412;DHT22;27097;51.738;19.472;2022-07-23T13:05:54;28.80;57.40
18412;DHT22;27097;51.738;19.472;2022-07-23T13:08:22;28.70;58.60
18412;DHT22;27097;51.738;19.472;2022-07-23T13:10:51;28.70;59.50
18412;DHT22;27097;51.738;19.472;2022-07-23T13:13:20;28.70;60.10
18412;DHT22;27097;51.738;19.472;2022-07-23T13:15:48;28.70;61.10
18412;DHT22;27097;51.738;19.472;2022-07-23T13:18:16;28.70;62.80
18412;DHT22;27097;51.738;19.472;2022-07-23T13:20:43;28.70;64.70
18412;DHT22;27097;51.738;19.472;2022-07-23T13:23:10;28.70;65.60
18412;DHT22;27097;51.738;19.472;2022-07-23T13:25:38;28.70;66.20
18412;DHT22;27097;51.738;19.472;2022-07-23T13:28:06;28.70;66.40
18412;DHT22;27097;51.738;19.472;2022-07-23T13:30:33;28.80;65.70
18412;DHT22;27097;51.738;19.472;2022-07-23T13:33:02;28.70;65.20
18412;DHT22;27097;51.738;19.472;2022-07-23T13:35:29;28.70;65.20
18412;DHT22;27097;51.738;19.472;2022-07-23T13:37:56;28.80;64.90
18412;DHT22;27097;51.738;19.472;2022-07-23T13:40:23;28.70;65.00
18412;DHT22;27097;51.738;19.472;2022-07-23T13:42:50;28.80;65.10
18412;DHT22;27097;51.738;19.472;2022-07-23T13:45:19;28.70;64.90
18412;DHT22;27097;51.738;19.472;2022-07-23T13:47:46;28.70;65.20
18412;DHT22;27097;51.738;19.472;2022-07-23T13:50:13;28.70;65.10
18412;DHT22;27097;51.738;19.472;2022-07-23T13:52:42;28.70;65.40
18412;DHT22;27097;51.738;19.472;2022-07-23T13:55:09;28.80;65.20
18412;DHT22;27097;51.738;19.472;2022-07-23T13:57:37;28.70;65.40
18412;DHT22;27097;51.738;19.472;2022-07-23T14:00:06;28.70;65.40
18412;DHT22;27097;51.738;19.472;2022-07-23T14:02:37;28.70;65.40
18412;DHT22;27097;51.738;19.472;2022-07-23T14:05:06;28.70;65.30
18412;DHT22;27097;51.738;19.472;2022-07-23T14:07:34;28.70;65.50
18412;DHT22;27097;51.738;19.472;2022-07-23T14:10:02;28.70;66.30
18412;DHT22;27097;51.738;19.472;2022-07-23T14:12:30;28.70;65.00
18412;DHT22;27097;51.738;19.472;2022-07-23T14:14:57;28.70;65.40
18412;DHT22;27097;51.738;19.472;2022-07-23T14:17:24;28.70;66.80
18412;DHT22;27097;51.738;19.472;2022-07-23T14:19:53;28.70;66.00
18412;DHT22;27097;51.738;19.472;2022-07-23T14:22:20;28.70;67.20
18412;DHT22;27097;51.738;19.472;2022-07-23T14:24:47;28.70;65.90
18412;DHT22;27097;51.738;19.472;2022-07-23T14:27:15;28.70;65.60
18412;DHT22;27097;51.738;19.472;2022-07-23T14:29:42;28.70;65.80
18412;DHT22;27097;51.738;19.472;2022-07-23T14:32:09;28.70;66.30
18412;DHT22;27097;51.738;19.472;2022-07-23T14:34:37;28.70;65.90
18412;DHT22;27097;51.738;19.472;2022-07-23T14:37:05;28.70;65.70
18412;DHT22;27097;51.738;19.472;2022-07-23T14:39:32;28.70;65.90
18412;DHT22;27097;51.738;19.472;2022-07-23T14:41:59;28.70;66.00
18412;DHT22;27097;51.738;19.472;2022-07-23T14:44:26;28.70;65.60
18412;DHT22;27097;51.738;19.472;2022-07-23T14:46:53;28.70;65.40
18412;DHT22;27097;51.738;19.472;2022-07-23T14:49:21;28.70;65.30
18412;DHT22;27097;51.738;19.472;2022-07-23T14:51:48;28.60;65.10
18412;DHT22;27097;51.738;19.472;2022-07-23T14:54:16;28.60;65.10
18412;DHT22;27097;51.738;19.472;2022-07-23T14:56:45;28.60;65.00
18412;DHT22;27097;51.738;19.472;2022-07-23T14:59:13;28.60;65.30
18412;DHT22;27097;51.738;19.472;2022-07-23T15:01:40;28.60;65.00
18412;DHT22;27097;51.738;19.472;2022-07-23T15:04:07;28.60;65.30
18412;DHT22;27097;51.738;19.472;2022-07-23T15:06:34;28.60;65.20
18412;DHT22;27097;51.738;19.472;2022-07-23T15:09:02;28.60;65.00
18412;DHT22;27097;51.738;19.472;2022-07-23T15:11:31;28.60;65.00
18412;DHT22;27097;51.738;19.472;2022-07-23T15:14:00;28.60;64.90
18412;DHT22;27097;51.738;19.472;2022-07-23T15:16:27;28.60;65.10
18412;DHT22;27097;51.738;19.472;2022-07-23T15:18:54;28.60;65.10
18412;DHT22;27097;51.738;19.472;2022-07-23T15:21:22;28.60;64.80
18412;DHT22;27097;51.738;19.472;2022-07-23T15:23:49;28.60;64.70
18412;DHT22;27097;51.738;19.472;2022-07-23T15:26:17;28.60;64.50
18412;DHT22;27097;51.738;19.472;2022-07-23T15:28:46;28.50;64.30
18412;DHT22;27097;51.738;19.472;2022-07-23T15:31:13;28.50;64.50
18412;DHT22;27097;51.738;19.472;2022-07-23T15:33:40;28.60;64.70
18412;DHT22;27097;51.738;19.472;2022-07-23T15:36:07;28.60;64.60